sensor_id;sensor_type;location;lat;lon;timestamp;pressure;altitude;pressure_sealevel;temperature;humidity
18819;BME280;9537;45.594;9.294;2023-07-13T00:00:38;99401.69;;;24.22;76.67
18819;BME280;9537;45.594;9.294;2023-07-13T00:01:40;99400.59;;;24.23;76.49
18819;BME280;9537;45.594;9.294;2023-07-13T00:02:41;99402.50;;;24.22;77.16
18819;BME280;9537;45.594;9.294;2023-07-13T00:03:43;99393.88;;;24.25;76.92
18819;BME280;9537;45.594;9.294;2023-07-13T00:04:44;99393.06;;;24.25;77.04
18819;BME280;9537;45.594;9.294;2023-07-13T00:05:46;99391.72;;;24.27;76.69
18819;BME280;9537;45.594;9.294;2023-07-13T00:06:49;99388.47;;;24.25;76.57
18819;BME280;9537;45.594;9.294;2023-07-13T00:07:52;99385.78;;;24.25;76.77
18819;BME280;9537;45.594;9.294;2023-07-13T00:08:53;99383.06;;;24.25;77.05
18819;BME280;9537;45.594;9.294;2023-07-13T00:09:54;99389.56;;;24.24;76.68
18819;BME280;9537;45.594;9.294;2023-07-13T00:10:55;99387.66;;;24.25;76.86
18819;BME280;9537;45.594;9.294;2023-07-13T00:11:57;99393.88;;;24.25;76.75
18819;BME280;9537;45.594;9.294;2023-07-13T00:12:58;99394.41;;;24.22;77.33
18819;BME280;9537;45.594;9.294;2023-07-13T00:14:00;99389.00;;;24.22;76.53
18819;BME280;9537;45.594;9.294;2023-07-13T00:15:05;99375.50;;;24.17;75.35
18819;BME280;9537;45.594;9.294;2023-07-13T00:16:07;99376.59;;;24.11;75.80
18819;BME280;9537;45.594;9.294;2023-07-13T00:17:09;99375.53;;;24.07;76.43
18819;BME280;9537;45.594;9.294;2023-07-13T00:18:09;99366.31;;;24.03;76.10
18819;BME280;9537;45.594;9.294;2023-07-13T00:19:12;99359.31;;;24.02;76.42
18819;BME280;9537;45.594;9.294;2023-07-13T00:20:13;99364.97;;;24.00;76.45
18819;BME280;9537;45.594;9.294;2023-07-13T00:21:14;99366.88;;;24.00;76.81
18819;BME280;9537;45.594;9.294;2023-07-13T00:22:17;99369.56;;;24.00;76.61
18819;BME280;9537;45.594;9.294;2023-07-13T00:23:18;99368.22;;;23.97;76.56
18819;BME280;9537;45.594;9.294;2023-07-13T00:24:19;99374.13;;;23.89;77.05
18819;BME280;9537;45.594;9.294;2023-07-13T00:25:24;99373.31;;;23.89;77.73
18819;BME280;9537;45.594;9.294;2023-07-13T00:26:28;99374.97;;;23.90;77.86
18819;BME280;9537;45.594;9.294;2023-07-13T00:27:31;99369.03;;;23.93;77.48
18819;BME280;9537;45.594;9.294;2023-07-13T00:28:32;99364.97;;;23.90;77.53
18819;BME280;9537;45.594;9.294;2023-07-13T00:29:34;99362.84;;;23.92;77.59
18819;BME280;9537;45.594;9.294;2023-07-13T00:30:35;99364.44;;;23.93;77.92
18819;BME280;9537;45.594;9.294;2023-07-13T00:31:37;99372.25;;;23.95;77.63
18819;BME280;9537;45.594;9.294;2023-07-13T00:32:38;99375.78;;;23.95;77.22
18819;BME280;9537;45.594;9.294;2023-07-13T00:33:39;99377.13;;;23.93;77.08
18819;BME280;9537;45.594;9.294;2023-07-13T00:34:40;99383.59;;;23.87;77.20
18819;BME280;9537;45.594;9.294;2023-07-13T00:35:42;99382.50;;;23.88;77.41
18819;BME280;9537;45.594;9.294;2023-07-13T00:36:44;99386.28;;;23.87;77.51
18819;BME280;9537;45.594;9.294;2023-07-13T00:37:47;99387.63;;;23.84;77.58
18819;BME280;9537;45.594;9.294;2023-07-13T00:38:47;99394.63;;;23.85;77.33
18819;BME280;9537;45.594;9.294;2023-07-13T00:39:49;99392.72;;;23.86;77.18
18819;BME280;9537;45.594;9.294;2023-07-13T00:40:50;99394.63;;;23.85;77.19
18819;BME280;9537;45.594;9.294;2023-07-13T00:41:52;99393.28;;;23.82;77.09
18819;BME280;9537;45.594;9.294;2023-07-13T00:42:53;99398.94;;;23.86;77.33
18819;BME280;9537;45.594;9.294;2023-07-13T00:43:55;99393.28;;;23.88;77.24
18819;BME280;9537;45.594;9.294;2023-07-13T00:45:07;99403.78;;;23.89;77.30
18819;BME280;9537;45.594;9.294;2023-07-13T00:46:15;99403.25;;;23.82;77.40
18819;BME280;9537;45.594;9.294;2023-07-13T00:47:16;99397.59;;;23.78;77.11
18819;BME280;9537;45.594;9.294;2023-07-13T00:48:21;99407.03;;;23.81;77.33
18819;BME280;9537;45.594;9.294;2023-07-13T00:49:24;99402.97;;;23.83;77.52
18819;BME280;9537;45.594;9.294;2023-07-13T00:50:26;99411.06;;;23.83;77.57
18819;BME280;9537;45.594;9.294;2023-07-13T00:51:31;99410.00;;;23.85;77.33
18819;BME280;9537;45.594;9.294;2023-07-13T00:52:33;99404.84;;;23.83;77.60
18819;BME280;9537;45.594;9.294;2023-07-13T00:53:38;99405.13;;;23.81;77.05
18819;BME280;9537;45.594;9.294;2023-07-13T00:54:42;99400.28;;;23.78;77.24
18819;BME280;9537;45.594;9.294;2023-07-13T00:55:45;99398.09;;;23.80;77.52
18819;BME280;9537;45.594;9.294;2023-07-13T00:56:49;99398.41;;;23.84;77.28
18819;BME280;9537;45.594;9.294;2023-07-13T00:57:52;99392.72;;;23.80;77.55
18819;BME280;9537;45.594;9.294;2023-07-13T00:58:53;99402.44;;;23.81;77.64
18819;BME280;9537;45.594;9.294;2023-07-13T00:59:58;99408.63;;;23.77;77.53
18819;BME280;9537;45.594;9.294;2023-07-13T01:00:59;99405.09;;;23.71;77.30
18819;BME280;9537;45.594;9.294;2023-07-13T01:02:04;99401.28;;;23.67;77.13
18819;BME280;9537;45.594;9.294;2023-07-13T01:03:04;99403.44;;;23.65;77.83
18819;BME280;9537;45.594;9.294;2023-07-13T01:04:07;99406.13;;;23.65;77.84
18819;BME280;9537;45.594;9.294;2023-07-13T01:05:09;99400.50;;;23.67;77.92
18819;BME280;9537;45.594;9.294;2023-07-13T01:06:11;99393.75;;;23.64;77.58
18819;BME280;9537;45.594;9.294;2023-07-13T01:07:12;99397.78;;;23.61;77.92
18819;BME280;9537;45.594;9.294;2023-07-13T01:08:14;99398.56;;;23.62;77.87
18819;BME280;9537;45.594;9.294;2023-07-13T01:09:16;99393.19;;;23.62;77.68
18819;BME280;9537;45.594;9.294;2023-07-13T01:10:21;99394.28;;;23.61;78.14
18819;BME280;9537;45.594;9.294;2023-07-13T01:11:22;99401.28;;;23.62;78.08
18819;BME280;9537;45.594;9.294;2023-07-13T01:12:24;99388.88;;;23.61;78.25
18819;BME280;9537;45.594;9.294;2023-07-13T01:13:25;99387.53;;;23.64;78.24
18819;BME280;9537;45.594;9.294;2023-07-13T01:14:27;99389.69;;;23.61;77.84
18819;BME280;9537;45.594;9.294;2023-07-13T01:15:39;99390.50;;;23.62;78.24
18819;BME280;9537;45.594;9.294;2023-07-13T01:16:42;99394.78;;;23.63;78.19
18819;BME280;9537;45.594;9.294;2023-07-13T01:17:43;99399.09;;;23.59;77.88
18819;BME280;9537;45.594;9.294;2023-07-13T01:18:45;99401.25;;;23.57;77.93
18819;BME280;9537;45.594;9.294;2023-07-13T01:19:46;99401.25;;;23.57;77.86
18819;BME280;9537;45.594;9.294;2023-07-13T01:20:53;99400.16;;;23.53;77.82
18819;BME280;9537;45.594;9.294;2023-07-13T01:21:54;99399.91;;;23.54;78.22
18819;BME280;9537;45.594;9.294;2023-07-13T01:22:55;99403.41;;;23.55;78.35
18819;BME280;9537;45.594;9.294;2023-07-13T01:23:56;99393.69;;;23.54;78.68
18819;BME280;9537;45.594;9.294;2023-07-13T01:24:59;99399.09;;;23.54;78.82
18819;BME280;9537;45.594;9.294;2023-07-13T01:26:00;99402.88;;;23.53;78.99
18819;BME280;9537;45.594;9.294;2023-07-13T01:27:02;99400.97;;;23.53;78.90
18819;BME280;9537;45.594;9.294;2023-07-13T01:28:04;99404.47;;;23.54;78.97
18819;BME280;9537;45.594;9.294;2023-07-13T01:29:06;99401.78;;;23.54;78.86
18819;BME280;9537;45.594;9.294;2023-07-13T01:30:09;99409.63;;;23.55;79.20
18819;BME280;9537;45.594;9.294;2023-07-13T01:31:11;99393.44;;;23.55;79.20
18819;BME280;9537;45.594;9.294;2023-07-13T01:32:18;99395.88;;;23.57;79.37
18819;BME280;9537;45.594;9.294;2023-07-13T01:33:23;99387.25;;;23.60;79.27
18819;BME280;9537;45.594;9.294;2023-07-13T01:34:24;99388.03;;;23.60;78.99
18819;BME280;9537;45.594;9.294;2023-07-13T01:35:26;99386.44;;;23.59;78.84
18819;BME280;9537;45.594;9.294;2023-07-13T01:36:28;99397.22;;;23.59;78.86
18819;BME280;9537;45.594;9.294;2023-07-13T01:37:30;99391.28;;;23.63;79.44
18819;BME280;9537;45.594;9.294;2023-07-13T01:38:34;99393.75;;;23.64;79.13
18819;BME280;9537;45.594;9.294;2023-07-13T01:39:36;99397.50;;;23.63;79.30
18819;BME280;9537;45.594;9.294;2023-07-13T01:40:38;99397.50;;;23.63;79.05
18819;BME280;9537;45.594;9.294;2023-07-13T01:41:40;99396.16;;;23.66;79.41
18819;BME280;9537;45.594;9.294;2023-07-13T01:42:41;99397.78;;;23.67;79.75
18819;BME280;9537;45.594;9.294;2023-07-13T01:43:43;99396.97;;;23.66;79.39
18819;BME280;9537;45.594;9.294;2023-07-13T01:44:44;99388.34;;;23.64;79.25
18819;BME280;9537;45.594;9.294;2023-07-13T01:45:45;99394.53;;;23.59;78.82
18819;BME280;9537;45.594;9.294;2023-07-13T01:46:46;99400.19;;;23.58;79.26
18819;BME280;9537;45.594;9.294;2023-07-13T01:47:48;99407.44;;;23.52;79.49
18819;BME280;9537;45.594;9.294;2023-07-13T01:48:48;99400.16;;;23.53;79.64
18819;BME280;9537;45.594;9.294;2023-07-13T01:49:50;99404.19;;;23.50;79.71
18819;BME280;9537;45.594;9.294;2023-07-13T01:50:52;99404.44;;;23.49;80.10
18819;BME280;9537;45.594;9.294;2023-07-13T01:51:55;99404.44;;;23.49;80.26
18819;BME280;9537;45.594;9.294;2023-07-13T01:52:56;99401.75;;;23.49;79.99
18819;BME280;9537;45.594;9.294;2023-07-13T01:53:57;99401.44;;;23.40;79.54
18819;BME280;9537;45.594;9.294;2023-07-13T01:54:58;99397.94;;;23.39;79.78
18819;BME280;9537;45.594;9.294;2023-07-13T01:56:00;99390.97;;;23.38;79.40
18819;BME280;9537;45.594;9.294;2023-07-13T01:57:00;99386.38;;;23.39;79.53
18819;BME280;9537;45.594;9.294;2023-07-13T01:58:03;99389.31;;;23.37;79.97
18819;BME280;9537;45.594;9.294;2023-07-13T01:59:05;99385.28;;;23.40;80.19
18819;BME280;9537;45.594;9.294;2023-07-13T02:00:09;99387.72;;;23.42;80.32
18819;BME280;9537;45.594;9.294;2023-07-13T02:01:10;99383.94;;;23.43;80.81
18819;BME280;9537;45.594;9.294;2023-07-13T02:02:12;99387.16;;;23.39;79.98
18819;BME280;9537;45.594;9.294;2023-07-13T02:03:12;99379.66;;;23.42;79.98
18819;BME280;9537;45.594;9.294;2023-07-13T02:04:18;99381.81;;;23.45;79.64
18819;BME280;9537;45.594;9.294;2023-07-13T02:05:19;99381.53;;;23.46;79.39
18819;BME280;9537;45.594;9.294;2023-07-13T02:06:21;99378.59;;;23.48;79.73
18819;BME280;9537;45.594;9.294;2023-07-13T02:07:23;99379.94;;;23.50;79.96
18819;BME280;9537;45.594;9.294;2023-07-13T02:08:25;99379.13;;;23.50;79.68
18819;BME280;9537;45.594;9.294;2023-07-13T02:09:26;99385.06;;;23.47;80.05
18819;BME280;9537;45.594;9.294;2023-07-13T02:10:27;99381.00;;;23.44;80.47
18819;BME280;9537;45.594;9.294;2023-07-13T02:11:28;99386.13;;;23.46;80.81
18819;BME280;9537;45.594;9.294;2023-07-13T02:12:33;99388.56;;;23.47;80.93
18819;BME280;9537;45.594;9.294;2023-07-13T02:13:34;99389.91;;;23.45;81.11
18819;BME280;9537;45.594;9.294;2023-07-13T02:14:35;99390.97;;;23.38;81.01
18819;BME280;9537;45.594;9.294;2023-07-13T02:15:38;99393.09;;;23.36;80.95
18819;BME280;9537;45.594;9.294;2023-07-13T02:16:41;99392.00;;;23.37;81.03
18819;BME280;9537;45.594;9.294;2023-07-13T02:17:42;99395.53;;;23.38;81.19
18819;BME280;9537;45.594;9.294;2023-07-13T02:18:44;99387.16;;;23.39;80.63
18819;BME280;9537;45.594;9.294;2023-07-13T02:19:44;99392.31;;;23.41;80.81
18819;BME280;9537;45.594;9.294;2023-07-13T02:20:46;99387.16;;;23.34;80.73
18819;BME280;9537;45.594;9.294;2023-07-13T02:21:47;99389.31;;;23.32;80.91
18819;BME280;9537;45.594;9.294;2023-07-13T02:22:50;99386.34;;;23.34;80.79
18819;BME280;9537;45.594;9.294;2023-07-13T02:23:51;99384.19;;;23.36;80.82
18819;BME280;9537;45.594;9.294;2023-07-13T02:24:53;99390.41;;;23.36;80.84
18819;BME280;9537;45.594;9.294;2023-07-13T02:25:55;99397.41;;;23.37;80.50
18819;BME280;9537;45.594;9.294;2023-07-13T02:26:57;99399.00;;;23.33;80.66
18819;BME280;9537;45.594;9.294;2023-07-13T02:27:57;99395.75;;;23.31;81.00
18819;BME280;9537;45.594;9.294;2023-07-13T02:28:59;99401.69;;;23.28;80.95
18819;BME280;9537;45.594;9.294;2023-07-13T02:30:00;99394.69;;;23.27;81.31
18819;BME280;9537;45.594;9.294;2023-07-13T02:31:06;99397.38;;;23.27;81.46
18819;BME280;9537;45.594;9.294;2023-07-13T02:32:08;99400.63;;;23.29;81.53
18819;BME280;9537;45.594;9.294;2023-07-13T02:33:11;99398.19;;;23.28;81.68
18819;BME280;9537;45.594;9.294;2023-07-13T02:34:12;99400.31;;;23.26;81.69
18819;BME280;9537;45.594;9.294;2023-07-13T02:35:13;99391.19;;;23.27;81.36
18819;BME280;9537;45.594;9.294;2023-07-13T02:36:15;99391.44;;;23.25;81.46
18819;BME280;9537;45.594;9.294;2023-07-13T02:37:19;99385.22;;;23.25;81.15
18819;BME280;9537;45.594;9.294;2023-07-13T02:38:21;99384.44;;;23.24;81.32
18819;BME280;9537;45.594;9.294;2023-07-13T02:39:22;99387.66;;;23.26;81.18
18819;BME280;9537;45.594;9.294;2023-07-13T02:40:23;99385.22;;;23.25;81.05
18819;BME280;9537;45.594;9.294;2023-07-13T02:41:25;99390.34;;;23.21;81.29
18819;BME280;9537;45.594;9.294;2023-07-13T02:42:26;99383.63;;;23.24;81.57
18819;BME280;9537;45.594;9.294;2023-07-13T02:43:27;99391.72;;;23.24;81.69
18819;BME280;9537;45.594;9.294;2023-07-13T02:44:28;99388.16;;;23.23;81.64
18819;BME280;9537;45.594;9.294;2023-07-13T02:45:30;99387.38;;;23.23;82.45
18819;BME280;9537;45.594;9.294;2023-07-13T02:46:31;99396.25;;;23.23;82.26
18819;BME280;9537;45.594;9.294;2023-07-13T02:47:33;99388.72;;;23.25;82.47
18819;BME280;9537;45.594;9.294;2023-07-13T02:48:36;99391.72;;;23.24;82.50
18819;BME280;9537;45.594;9.294;2023-07-13T02:49:37;99396.00;;;23.25;82.69
18819;BME280;9537;45.594;9.294;2023-07-13T02:50:38;99396.28;;;23.28;82.45
18819;BME280;9537;45.594;9.294;2023-07-13T02:51:39;99401.16;;;23.31;82.28
18819;BME280;9537;45.594;9.294;2023-07-13T02:52:40;99396.56;;;23.32;82.68
18819;BME280;9537;45.594;9.294;2023-07-13T02:53:43;99395.47;;;23.28;82.53
18819;BME280;9537;45.594;9.294;2023-07-13T02:54:44;99398.44;;;23.26;82.54
18819;BME280;9537;45.594;9.294;2023-07-13T02:55:45;99398.69;;;23.25;82.73
18819;BME280;9537;45.594;9.294;2023-07-13T02:56:47;99409.47;;;23.25;82.67
18819;BME280;9537;45.594;9.294;2023-07-13T02:57:48;99407.03;;;23.18;82.20
18819;BME280;9537;45.594;9.294;2023-07-13T02:58:50;99407.03;;;23.18;82.35
18819;BME280;9537;45.594;9.294;2023-07-13T02:59:51;99398.66;;;23.20;82.42
18819;BME280;9537;45.594;9.294;2023-07-13T03:00:53;99404.63;;;23.22;82.06
18819;BME280;9537;45.594;9.294;2023-07-13T03:01:54;99402.72;;;23.22;82.33
18819;BME280;9537;45.594;9.294;2023-07-13T03:02:55;99399.47;;;23.20;82.42
18819;BME280;9537;45.594;9.294;2023-07-13T03:03:58;99395.16;;;23.19;82.68
18819;BME280;9537;45.594;9.294;2023-07-13T03:04:59;99397.31;;;23.17;83.01
18819;BME280;9537;45.594;9.294;2023-07-13T03:06:01;99395.16;;;23.19;83.08
18819;BME280;9537;45.594;9.294;2023-07-13T03:07:04;99402.16;;;23.20;83.20
18819;BME280;9537;45.594;9.294;2023-07-13T03:08:04;99410.25;;;23.20;83.26
18819;BME280;9537;45.594;9.294;2023-07-13T03:09:08;99401.88;;;23.16;83.21
18819;BME280;9537;45.594;9.294;2023-07-13T03:10:09;99407.28;;;23.16;83.24
18819;BME280;9537;45.594;9.294;2023-07-13T03:11:13;99405.66;;;23.21;83.34
18819;BME280;9537;45.594;9.294;2023-07-13T03:12:14;99410.00;;;23.22;83.57
18819;BME280;9537;45.594;9.294;2023-07-13T03:13:16;99408.91;;;23.23;83.83
18819;BME280;9537;45.594;9.294;2023-07-13T03:14:17;99411.63;;;23.23;84.04
18819;BME280;9537;45.594;9.294;2023-07-13T03:15:18;99405.19;;;23.24;83.99
18819;BME280;9537;45.594;9.294;2023-07-13T03:16:19;99409.19;;;23.26;83.79
18819;BME280;9537;45.594;9.294;2023-07-13T03:17:20;99412.97;;;23.25;83.72
18819;BME280;9537;45.594;9.294;2023-07-13T03:18:23;99410.84;;;23.27;83.85
18819;BME280;9537;45.594;9.294;2023-07-13T03:19:24;99414.09;;;23.29;84.24
18819;BME280;9537;45.594;9.294;2023-07-13T03:20:25;99415.66;;;23.25;84.77
18819;BME280;9537;45.594;9.294;2023-07-13T03:21:27;99413.25;;;23.24;85.21
18819;BME280;9537;45.594;9.294;2023-07-13T03:22:28;99413.53;;;23.27;85.01
18819;BME280;9537;45.594;9.294;2023-07-13T03:23:29;99410.28;;;23.25;84.92
18819;BME280;9537;45.594;9.294;2023-07-13T03:24:33;99416.22;;;23.27;84.80
18819;BME280;9537;45.594;9.294;2023-07-13T03:25:34;99414.59;;;23.26;85.31
18819;BME280;9537;45.594;9.294;2023-07-13T03:26:36;99419.97;;;23.26;85.17
18819;BME280;9537;45.594;9.294;2023-07-13T03:27:37;99415.44;;;23.27;85.17
18819;BME280;9537;45.594;9.294;2023-07-13T03:28:39;99412.44;;;23.28;85.13
18819;BME280;9537;45.594;9.294;2023-07-13T03:29:40;99406.00;;;23.29;85.12
18819;BME280;9537;45.594;9.294;2023-07-13T03:30:41;99401.69;;;23.28;85.19
18819;BME280;9537;45.594;9.294;2023-07-13T03:31:42;99403.31;;;23.29;85.30
18819;BME280;9537;45.594;9.294;2023-07-13T03:32:44;99401.16;;;23.31;85.09
18819;BME280;9537;45.594;9.294;2023-07-13T03:33:44;99398.97;;;23.28;85.67
18819;BME280;9537;45.594;9.294;2023-07-13T03:34:46;99396.28;;;23.28;85.58
18819;BME280;9537;45.594;9.294;2023-07-13T03:35:47;99404.38;;;23.28;85.81
18819;BME280;9537;45.594;9.294;2023-07-13T03:36:48;99407.88;;;23.29;86.04
18819;BME280;9537;45.594;9.294;2023-07-13T03:37:49;99391.97;;;23.27;85.93
18819;BME280;9537;45.594;9.294;2023-07-13T03:38:53;99397.94;;;23.29;85.78
18819;BME280;9537;45.594;9.294;2023-07-13T03:39:57;99389.00;;;23.29;85.62
18819;BME280;9537;45.594;9.294;2023-07-13T03:40:57;99397.94;;;23.29;84.77
18819;BME280;9537;45.594;9.294;2023-07-13T03:41:59;99395.22;;;23.29;84.80
18819;BME280;9537;45.594;9.294;2023-07-13T03:43:00;99403.31;;;23.29;84.62
18819;BME280;9537;45.594;9.294;2023-07-13T03:44:03;99401.16;;;23.31;83.79
18819;BME280;9537;45.594;9.294;2023-07-13T03:45:05;99406.53;;;23.31;83.68
18819;BME280;9537;45.594;9.294;2023-07-13T03:46:07;99400.34;;;23.31;83.88
18819;BME280;9537;45.594;9.294;2023-07-13T03:47:07;99396.56;;;23.32;83.62
18819;BME280;9537;45.594;9.294;2023-07-13T03:48:09;99401.16;;;23.31;83.39
18819;BME280;9537;45.594;9.294;2023-07-13T03:49:10;99403.84;;;23.31;83.50
18819;BME280;9537;45.594;9.294;2023-07-13T03:50:12;99405.72;;;23.31;83.20
18819;BME280;9537;45.594;9.294;2023-07-13T03:51:14;99407.91;;;23.34;82.87
18819;BME280;9537;45.594;9.294;2023-07-13T03:52:17;99400.91;;;23.33;82.82
18819;BME280;9537;45.594;9.294;2023-07-13T03:53:17;99408.19;;;23.32;82.87
18819;BME280;9537;45.594;9.294;2023-07-13T03:54:19;99408.97;;;23.33;83.14
18819;BME280;9537;45.594;9.294;2023-07-13T03:55:22;99416.25;;;23.32;83.68
18819;BME280;9537;45.594;9.294;2023-07-13T03:56:23;99421.66;;;23.32;83.69
18819;BME280;9537;45.594;9.294;2023-07-13T03:57:25;99414.91;;;23.30;83.97
18819;BME280;9537;45.594;9.294;2023-07-13T03:58:29;99420.00;;;23.31;84.31
18819;BME280;9537;45.594;9.294;2023-07-13T03:59:30;99415.72;;;23.30;84.47
18819;BME280;9537;45.594;9.294;2023-07-13T04:00:32;99417.28;;;23.26;84.96
18819;BME280;9537;45.594;9.294;2023-07-13T04:01:33;99410.28;;;23.25;85.21
18819;BME280;9537;45.594;9.294;2023-07-13T04:02:35;99408.94;;;23.28;85.48
18819;BME280;9537;45.594;9.294;2023-07-13T04:03:38;99416.22;;;23.27;85.50
18819;BME280;9537;45.594;9.294;2023-07-13T04:04:38;99417.03;;;23.28;85.49
18819;BME280;9537;45.594;9.294;2023-07-13T04:05:41;99419.72;;;23.28;85.06
18819;BME280;9537;45.594;9.294;2023-07-13T04:06:42;99415.44;;;23.27;85.22
18819;BME280;9537;45.594;9.294;2023-07-13T04:07:43;99415.13;;;23.23;85.42
18819;BME280;9537;45.594;9.294;2023-07-13T04:08:44;99419.97;;;23.21;85.29
18819;BME280;9537;45.594;9.294;2023-07-13T04:09:45;99408.63;;;23.19;85.11
18819;BME280;9537;45.594;9.294;2023-07-13T04:10:48;99410.78;;;23.17;85.12
18819;BME280;9537;45.594;9.294;2023-07-13T04:11:48;99405.66;;;23.15;85.61
18819;BME280;9537;45.594;9.294;2023-07-13T04:12:50;99398.94;;;23.18;85.53
18819;BME280;9537;45.594;9.294;2023-07-13T04:13:51;99406.75;;;23.20;85.88
18819;BME280;9537;45.594;9.294;2023-07-13T04:14:53;99401.94;;;23.22;86.20
18819;BME280;9537;45.594;9.294;2023-07-13T04:15:54;99407.88;;;23.24;86.40
18819;BME280;9537;45.594;9.294;2023-07-13T04:16:56;99411.38;;;23.24;86.89
18819;BME280;9537;45.594;9.294;2023-07-13T04:17:57;99409.47;;;23.25;86.81
18819;BME280;9537;45.594;9.294;2023-07-13T04:19:00;99412.16;;;23.25;87.23
18819;BME280;9537;45.594;9.294;2023-07-13T04:20:01;99408.41;;;23.26;87.36
18819;BME280;9537;45.594;9.294;2023-07-13T04:21:03;99410.28;;;23.25;87.22
18819;BME280;9537;45.594;9.294;2023-07-13T04:22:04;99413.78;;;23.26;87.61
18819;BME280;9537;45.594;9.294;2023-07-13T04:23:06;99410.84;;;23.27;87.25
18819;BME280;9537;45.594;9.294;2023-07-13T04:24:06;99410.03;;;23.27;87.49
18819;BME280;9537;45.594;9.294;2023-07-13T04:25:09;99414.34;;;23.28;87.10
18819;BME280;9537;45.594;9.294;2023-07-13T04:26:11;99410.84;;;23.27;86.68
18819;BME280;9537;45.594;9.294;2023-07-13T04:27:12;99419.47;;;23.29;86.84
18819;BME280;9537;45.594;9.294;2023-07-13T04:28:13;99409.50;;;23.30;86.49
18819;BME280;9537;45.594;9.294;2023-07-13T04:29:16;99425.16;;;23.33;86.67
18819;BME280;9537;45.594;9.294;2023-07-13T04:30:16;99417.31;;;23.31;86.66
18819;BME280;9537;45.594;9.294;2023-07-13T04:31:18;99424.34;;;23.32;86.78
18819;BME280;9537;45.594;9.294;2023-07-13T04:32:21;99425.16;;;23.33;86.82
18819;BME280;9537;45.594;9.294;2023-07-13T04:33:23;99427.84;;;23.33;86.83
18819;BME280;9537;45.594;9.294;2023-07-13T04:34:24;99426.19;;;23.32;87.04
18819;BME280;9537;45.594;9.294;2023-07-13T04:35:26;99422.19;;;23.34;87.01
18819;BME280;9537;45.594;9.294;2023-07-13T04:36:27;99423.81;;;23.35;86.93
18819;BME280;9537;45.594;9.294;2023-07-13T04:37:29;99426.50;;;23.35;87.24
18819;BME280;9537;45.594;9.294;2023-07-13T04:38:31;99426.75;;;23.34;87.68
18819;BME280;9537;45.594;9.294;2023-07-13T04:39:34;99431.34;;;23.33;87.65
18819;BME280;9537;45.594;9.294;2023-07-13T04:40:34;99437.53;;;23.34;87.88
18819;BME280;9537;45.594;9.294;2023-07-13T04:41:37;99436.19;;;23.31;88.17
18819;BME280;9537;45.594;9.294;2023-07-13T04:42:38;99437.50;;;23.29;87.96
18819;BME280;9537;45.594;9.294;2023-07-13T04:43:39;99444.78;;;23.28;87.92
18819;BME280;9537;45.594;9.294;2023-07-13T04:44:40;99447.47;;;23.28;87.60
18819;BME280;9537;45.594;9.294;2023-07-13T04:45:41;99447.75;;;23.27;87.85
18819;BME280;9537;45.594;9.294;2023-07-13T04:46:42;99440.72;;;23.26;87.71
18819;BME280;9537;45.594;9.294;2023-07-13T04:47:44;99441.53;;;23.26;87.94
18819;BME280;9537;45.594;9.294;2023-07-13T04:48:44;99443.41;;;23.26;87.99
18819;BME280;9537;45.594;9.294;2023-07-13T04:49:46;99445.31;;;23.25;87.70
18819;BME280;9537;45.594;9.294;2023-07-13T04:50:47;99443.19;;;23.27;88.21
18819;BME280;9537;45.594;9.294;2023-07-13T04:51:48;99449.94;;;23.30;88.05
18819;BME280;9537;45.594;9.294;2023-07-13T04:52:50;99448.28;;;23.29;88.04
18819;BME280;9537;45.594;9.294;2023-07-13T04:53:51;99448.53;;;23.22;87.44
18819;BME280;9537;45.594;9.294;2023-07-13T04:54:52;99448.00;;;23.25;87.14
18819;BME280;9537;45.594;9.294;2023-07-13T04:55:53;99448.00;;;23.25;87.11
18819;BME280;9537;45.594;9.294;2023-07-13T04:56:56;99438.31;;;23.24;87.56
18819;BME280;9537;45.594;9.294;2023-07-13T04:57:57;99444.50;;;23.25;87.61
18819;BME280;9537;45.594;9.294;2023-07-13T04:59:00;99454.47;;;23.24;88.28
18819;BME280;9537;45.594;9.294;2023-07-13T05:00:00;99441.00;;;23.24;88.42
18819;BME280;9537;45.594;9.294;2023-07-13T05:01:07;99444.47;;;23.20;88.44
18819;BME280;9537;45.594;9.294;2023-07-13T05:02:09;99447.72;;;23.22;88.43
18819;BME280;9537;45.594;9.294;2023-07-13T05:03:11;99446.91;;;23.21;88.58
18819;BME280;9537;45.594;9.294;2023-07-13T05:04:12;99451.22;;;23.22;88.57
18819;BME280;9537;45.594;9.294;2023-07-13T05:05:14;99441.25;;;23.23;88.38
18819;BME280;9537;45.594;9.294;2023-07-13T05:06:14;99452.31;;;23.21;87.84
18819;BME280;9537;45.594;9.294;2023-07-13T05:07:15;99442.34;;;23.22;87.57
18819;BME280;9537;45.594;9.294;2023-07-13T05:08:17;99437.47;;;23.19;87.78
18819;BME280;9537;45.594;9.294;2023-07-13T05:09:18;99437.19;;;23.20;87.54
18819;BME280;9537;45.594;9.294;2023-07-13T05:10:19;99433.44;;;23.21;87.67
18819;BME280;9537;45.594;9.294;2023-07-13T05:11:20;99431.56;;;23.22;87.64
18819;BME280;9537;45.594;9.294;2023-07-13T05:12:23;99425.09;;;23.23;88.10
18819;BME280;9537;45.594;9.294;2023-07-13T05:13:24;99422.66;;;23.21;88.11
18819;BME280;9537;45.594;9.294;2023-07-13T05:14:28;99424.28;;;23.22;88.37
18819;BME280;9537;45.594;9.294;2023-07-13T05:15:28;99429.16;;;23.25;88.52
18819;BME280;9537;45.594;9.294;2023-07-13T05:16:30;99421.88;;;23.26;88.50
18819;BME280;9537;45.594;9.294;2023-07-13T05:17:32;99419.16;;;23.26;88.89
18819;BME280;9537;45.594;9.294;2023-07-13T05:18:34;99415.66;;;23.25;89.04
18819;BME280;9537;45.594;9.294;2023-07-13T05:19:37;99418.66;;;23.24;89.29
18819;BME280;9537;45.594;9.294;2023-07-13T05:20:39;99421.06;;;23.25;89.13
18819;BME280;9537;45.594;9.294;2023-07-13T05:21:40;99415.13;;;23.23;89.20
18819;BME280;9537;45.594;9.294;2023-07-13T05:22:42;99416.19;;;23.22;89.44
18819;BME280;9537;45.594;9.294;2023-07-13T05:23:43;99425.38;;;23.21;89.79
18819;BME280;9537;45.594;9.294;2023-07-13T05:24:45;99414.31;;;23.23;89.67
18819;BME280;9537;45.594;9.294;2023-07-13T05:25:46;99418.09;;;23.22;89.32
18819;BME280;9537;45.594;9.294;2023-07-13T05:26:47;99411.91;;;23.21;89.66
18819;BME280;9537;45.594;9.294;2023-07-13T05:27:49;99418.66;;;23.24;89.84
18819;BME280;9537;45.594;9.294;2023-07-13T05:28:51;99424.28;;;23.22;90.10
18819;BME280;9537;45.594;9.294;2023-07-13T05:29:52;99419.69;;;23.23;90.58
18819;BME280;9537;45.594;9.294;2023-07-13T05:30:54;99425.38;;;23.21;90.95
18819;BME280;9537;45.594;9.294;2023-07-13T05:31:55;99428.59;;;23.23;91.08